createdAt,value
2018-11-26T05:31:11.391Z,7.00
2018-11-26T05:33:39.053Z,7.00
2018-11-26T05:36:06.655Z,6.80
2018-11-26T05:38:34.222Z,6.80
2018-11-26T05:41:01.970Z,6.70
2018-11-26T05:43:29.570Z,6.80
2018-11-26T05:45:57.206Z,6.80
2018-11-26T05:48:24.826Z,6.70
2018-11-26T05:50:52.604Z,6.80
2018-11-26T05:53:20.811Z,6.80
2018-11-26T05:55:48.446Z,6.80
2018-11-26T05:58:16.460Z,6.80
2018-11-26T06:00:44.155Z,6.70
2018-11-26T06:03:11.813Z,6.60
2018-11-26T06:05:39.462Z,6.60
2018-11-26T06:08:07.286Z,6.50
2018-11-26T06:10:35.946Z,6.50
2018-11-26T06:13:04.062Z,6.50
2018-11-26T06:15:32.005Z,6.40
2018-11-26T06:17:59.716Z,6.40
2018-11-26T06:20:27.484Z,6.30
2018-11-26T06:22:55.188Z,6.30
2018-11-26T06:25:22.934Z,6.30
2018-11-26T06:27:50.663Z,6.30
2018-11-26T06:30:19.290Z,6.30
2018-11-26T06:32:48.246Z,6.20
2018-11-26T06:35:17.180Z,6.20
2018-11-26T06:37:44.831Z,6.20
2018-11-26T06:40:13.252Z,6.20
2018-11-26T06:42:41.159Z,6.30
2018-11-26T06:45:12.375Z,6.30
2018-11-26T06:47:40.790Z,6.30
2018-11-26T06:50:10.136Z,6.30
2018-11-26T06:52:37.768Z,6.30
2018-11-26T06:55:07.022Z,6.30
2018-11-26T06:57:34.711Z,6.30
2018-11-26T07:00:02.697Z,6.40
2018-11-26T07:02:30.293Z,6.30
2018-11-26T07:04:57.925Z,6.30
2018-11-26T07:07:25.518Z,6.40
2018-11-26T07:09:53.129Z,6.40
2018-11-26T07:12:20.851Z,6.40
2018-11-26T07:14:48.548Z,6.40
2018-11-26T07:17:16.148Z,6.40
2018-11-26T07:19:43.699Z,6.40
2018-11-26T07:22:11.395Z,6.50
2018-11-26T07:24:38.955Z,6.60
2018-11-26T07:27:06.565Z,6.70
2018-11-26T07:29:34.336Z,6.70
2018-11-26T07:32:02.080Z,6.70
2018-11-26T07:34:29.902Z,6.60
2018-11-26T07:36:57.612Z,6.70
2018-11-26T07:39:25.316Z,6.70
2018-11-26T07:41:53.720Z,6.80
2018-11-26T07:44:21.311Z,6.90
2018-11-26T07:46:48.844Z,7.00
2018-11-26T07:49:16.519Z,7.00
2018-11-26T07:51:44.062Z,7.10
2018-11-26T07:54:11.835Z,7.20
2018-11-26T07:56:39.439Z,7.10
2018-11-26T07:59:07.079Z,7.10
2018-11-26T08:01:34.719Z,7.00
2018-11-26T08:04:03.101Z,7.00
2018-11-26T08:06:30.842Z,7.10
2018-11-26T08:08:58.550Z,7.10
2018-11-26T08:11:26.258Z,7.20
2018-11-26T08:13:53.997Z,7.30
2018-11-26T08:16:21.727Z,7.30
2018-11-26T08:18:49.372Z,7.30
2018-11-26T08:21:16.970Z,7.30
2018-11-26T08:23:44.586Z,7.20
2018-11-26T08:26:12.186Z,7.30
2018-11-26T08:28:39.806Z,7.40
2018-11-26T08:31:07.615Z,7.30
2018-11-26T08:33:35.674Z,7.20
2018-11-26T08:36:09.168Z,7.20
2018-11-26T08:38:42.499Z,7.30
2018-11-26T08:41:13.989Z,7.30
2018-11-26T08:43:43.944Z,7.20
2018-11-26T08:46:12.841Z,7.20
2018-11-26T08:48:46.180Z,7.20
2018-11-26T08:51:13.782Z,7.30
2018-11-26T08:53:41.460Z,7.30
2018-11-26T08:56:09.159Z,7.20
2018-11-26T08:58:36.854Z,7.30
2018-11-26T09:01:06.068Z,7.30
2018-11-26T09:03:39.176Z,7.30
2018-11-26T09:06:07.215Z,7.30
2018-11-26T09:08:36.842Z,7.40
2018-11-26T09:11:05.812Z,7.50
2018-11-26T09:13:33.422Z,7.60
2018-11-26T09:16:01.921Z,7.50
2018-11-26T09:18:30.079Z,7.50
2018-11-26T09:20:57.838Z,7.50
2018-11-26T09:23:25.438Z,7.50
2018-11-26T09:25:53.121Z,7.40
2018-11-26T09:28:20.859Z,7.50
2018-11-26T09:30:48.556Z,7.70
2018-11-26T09:33:16.530Z,7.70
2018-11-26T09:35:44.127Z,7.80
2018-11-26T09:38:13.067Z,7.90
2018-11-26T09:40:39.459Z,7.90
2018-11-26T09:43:07.448Z,8.00
2018-11-26T09:45:40.040Z,7.90
2018-11-26T09:48:03.461Z,7.90
2018-11-26T09:50:31.766Z,8.00
2018-11-26T09:52:59.479Z,8.10
2018-11-26T09:55:27.890Z,8.10
2018-11-26T09:57:55.524Z,8.20
2018-11-26T10:00:23.762Z,8.20
2018-11-26T10:02:51.941Z,8.30
2018-11-26T10:05:24.104Z,8.20
2018-11-26T10:07:51.817Z,8.10
2018-11-26T10:10:19.637Z,8.10
2018-11-26T10:12:47.488Z,8.00
2018-11-26T10:15:23.006Z,7.90
2018-11-26T10:17:50.805Z,8.00
2018-11-26T10:20:18.578Z,8.00
2018-11-26T10:22:46.848Z,8.10
2018-11-26T10:25:16.598Z,8.10
2018-11-26T10:27:44.340Z,8.10
2018-11-26T10:30:13.444Z,8.20
2018-11-26T10:32:41.435Z,8.20
2018-11-26T10:35:10.504Z,8.20
2018-11-26T10:37:38.217Z,8.20
2018-11-26T10:40:10.338Z,8.10
2018-11-26T10:42:38.208Z,8.00
2018-11-26T10:45:15.067Z,8.10
2018-11-26T10:47:42.791Z,8.10
2018-11-26T10:50:12.987Z,8.10
2018-11-26T10:52:42.698Z,8.20
2018-11-26T10:55:12.321Z,8.30
2018-11-26T10:57:39.898Z,8.30
2018-11-26T11:00:14.043Z,8.40
2018-11-26T11:02:42.544Z,8.40
2018-11-26T11:05:10.545Z,8.50
2018-11-26T11:07:38.284Z,8.60
2018-11-26T11:10:13.559Z,8.60
2018-11-26T11:12:41.262Z,8.70
2018-11-26T11:15:11.946Z,8.70
2018-11-26T11:17:39.837Z,8.40
2018-11-26T11:20:12.970Z,8.40
2018-11-26T11:22:40.674Z,8.50
2018-11-26T11:25:09.563Z,8.60
2018-11-26T11:27:37.229Z,8.60
2018-11-26T11:30:15.805Z,8.60
2018-11-26T11:32:43.471Z,8.60
2018-11-26T11:35:12.997Z,8.40
2018-11-26T11:37:41.518Z,8.50
2018-11-26T11:40:14.003Z,8.50
2018-11-26T11:42:42.416Z,8.30
2018-11-26T11:45:12.811Z,8.20
2018-11-26T11:47:40.508Z,8.30
2018-11-26T11:50:12.601Z,8.30
2018-11-26T11:52:40.229Z,8.30
2018-11-26T11:55:10.391Z,8.40
2018-11-26T11:57:38.072Z,8.40
2018-11-26T12:00:24.773Z,8.40
2018-11-26T12:02:52.368Z,8.50
2018-11-26T12:05:19.980Z,8.20
2018-11-26T12:07:47.781Z,8.30
2018-11-26T12:10:15.447Z,8.30
2018-11-26T12:12:43.246Z,8.30
2018-11-26T12:15:12.451Z,8.40
2018-11-26T12:17:41.101Z,8.50
2018-11-26T12:20:15.476Z,8.50
2018-11-26T12:22:43.743Z,8.50
2018-11-26T12:25:15.607Z,8.50
2018-11-26T12:27:43.509Z,8.40
2018-11-26T12:30:15.472Z,8.30
2018-11-26T12:32:43.146Z,8.30
2018-11-26T12:35:11.657Z,8.30
2018-11-26T12:37:39.392Z,8.40
2018-11-26T12:40:08.796Z,8.40
2018-11-26T12:42:36.447Z,8.30
2018-11-26T12:45:12.846Z,8.30
2018-11-26T12:47:40.487Z,8.20
2018-11-26T12:50:08.860Z,8.30
2018-11-26T12:52:37.774Z,8.20
2018-11-26T12:55:10.022Z,8.30
2018-11-26T12:57:38.767Z,8.30
2018-11-26T13:00:12.345Z,8.30
2018-11-26T13:02:40.044Z,8.30
2018-11-26T13:05:10.200Z,8.30
2018-11-26T13:07:37.933Z,8.30
2018-11-26T13:10:08.964Z,8.30
2018-11-26T13:12:36.744Z,8.30
2018-11-26T13:15:07.880Z,8.20
2018-11-26T13:17:36.291Z,8.10
2018-11-26T13:20:07.075Z,8.10
2018-11-26T13:22:35.318Z,8.00
2018-11-26T13:25:03.035Z,8.00
2018-11-26T13:27:30.737Z,7.90
2018-11-26T13:29:58.444Z,7.80
2018-11-26T13:32:26.797Z,7.90
2018-11-26T13:34:54.539Z,8.00
2018-11-26T13:37:22.164Z,8.10
2018-11-26T13:39:50.083Z,8.20
2018-11-26T13:42:19.203Z,8.20
2018-11-26T13:44:46.842Z,8.30
2018-11-26T13:47:14.611Z,8.20
2018-11-26T13:49:42.309Z,8.30
2018-11-26T13:52:10.667Z,8.30
2018-11-26T13:54:38.861Z,8.30
2018-11-26T13:57:06.563Z,8.30
2018-11-26T13:59:34.367Z,8.20
2018-11-26T14:02:02.158Z,8.20
2018-11-26T14:04:29.872Z,8.10
2018-11-26T14:06:58.947Z,8.20
2018-11-26T14:09:26.952Z,8.20
2018-11-26T14:11:54.632Z,8.20
2018-11-26T14:14:29.048Z,8.10
2018-11-26T14:16:57.074Z,8.10
2018-11-26T14:19:24.949Z,8.00
2018-11-26T14:21:52.911Z,8.10
2018-11-26T14:24:20.581Z,8.10
2018-11-26T14:26:48.536Z,8.00
2018-11-26T14:29:16.368Z,8.00
2018-11-26T14:31:44.837Z,7.90
2018-11-26T14:34:12.911Z,8.00
2018-11-26T14:36:40.789Z,7.90
2018-11-26T14:39:08.607Z,7.90
2018-11-26T14:41:36.236Z,8.00
2018-11-26T14:44:03.969Z,8.00
2018-11-26T14:46:31.953Z,7.80
2018-11-26T14:48:59.645Z,7.60
2018-11-26T14:51:27.473Z,7.40
2018-11-26T14:53:55.302Z,7.40
2018-11-26T14:56:23.104Z,7.30
2018-11-26T14:58:51.370Z,7.40
2018-11-26T15:01:19.379Z,7.30
2018-11-26T15:03:47.285Z,7.30
2018-11-26T15:06:15.271Z,7.40
2018-11-26T15:08:43.067Z,7.30
2018-11-26T15:11:11.382Z,7.20
2018-11-26T15:13:39.949Z,7.10
2018-11-26T15:16:07.845Z,7.00
2018-11-26T15:18:36.218Z,7.00
2018-11-26T15:21:04.273Z,7.00
2018-11-26T15:23:32.231Z,6.90
2018-11-26T15:25:59.848Z,6.90
2018-11-26T15:28:27.591Z,6.80
2018-11-26T15:30:55.742Z,6.80
2018-11-26T15:33:23.935Z,6.80
2018-11-26T15:35:51.671Z,6.70
2018-11-26T15:38:19.422Z,6.80
2018-11-26T15:40:47.172Z,6.60
2018-11-26T15:43:14.852Z,6.50
2018-11-26T15:45:42.488Z,6.60
2018-11-26T15:48:12.492Z,6.60
2018-11-26T15:50:40.497Z,6.50
2018-11-26T15:53:09.133Z,6.50
2018-11-26T15:55:37.322Z,6.40
2018-11-26T15:58:06.108Z,6.40
2018-11-26T16:00:33.977Z,6.40
2018-11-26T16:03:02.283Z,6.40
2018-11-26T16:05:31.064Z,6.40
2018-11-26T16:08:07.749Z,6.40
2018-11-26T16:10:35.523Z,6.40
2018-11-26T16:13:04.921Z,6.40
2018-11-26T16:15:34.927Z,6.40
2018-11-26T16:18:04.904Z,6.40
2018-11-26T16:20:33.269Z,6.40
2018-11-26T16:23:01.156Z,6.30
2018-11-26T16:25:29.426Z,6.30
2018-11-26T16:27:57.062Z,6.40
2018-11-26T16:30:25.266Z,6.30
2018-11-26T16:32:55.373Z,6.20
2018-11-26T16:35:26.479Z,6.30
2018-11-26T16:37:54.184Z,6.30
2018-11-26T16:40:22.632Z,6.30
2018-11-26T16:42:50.657Z,6.30
2018-11-26T16:45:19.592Z,6.30
2018-11-26T16:47:48.939Z,6.30
2018-11-26T16:50:18.156Z,6.30
2018-11-26T16:52:46.586Z,6.30
2018-11-26T16:55:15.116Z,6.20
2018-11-26T16:57:43.019Z,6.20
2018-11-26T17:00:20.634Z,6.30
2018-11-26T17:02:50.428Z,6.30
2018-11-26T17:05:23.639Z,6.30
2018-11-26T17:07:51.436Z,6.30
2018-11-26T17:10:19.221Z,6.20
2018-11-26T17:12:46.886Z,6.10
2018-11-26T17:15:16.803Z,6.20
2018-11-26T17:17:44.881Z,6.20
2018-11-26T17:20:13.571Z,6.10
2018-11-26T17:22:41.310Z,6.10
2018-11-26T17:25:12.758Z,6.10
2018-11-26T17:27:41.092Z,6.10
2018-11-26T17:30:18.960Z,6.20
2018-11-26T17:32:48.607Z,6.20
2018-11-26T17:35:16.870Z,6.00
2018-11-26T17:37:45.258Z,5.90
2018-11-26T17:40:15.411Z,6.00
2018-11-26T17:42:43.165Z,6.10
2018-11-26T17:45:11.999Z,6.00
2018-11-26T17:47:40.544Z,6.00
2018-11-26T17:50:12.090Z,5.90
2018-11-26T17:52:40.051Z,5.80
2018-11-26T17:55:08.634Z,5.80
2018-11-26T17:57:36.312Z,6.00
2018-11-26T18:00:07.734Z,6.00
2018-11-26T18:02:35.536Z,6.00
2018-11-26T18:05:04.223Z,6.00
2018-11-26T18:07:31.956Z,6.00
2018-11-26T18:12:34.053Z,6.00
2018-11-26T18:15:01.909Z,6.00
2018-11-26T18:17:29.673Z,6.10
2018-11-26T18:19:57.447Z,6.10
2018-11-26T18:22:25.094Z,6.00
2018-11-26T18:24:52.850Z,5.90
2018-11-26T18:27:20.530Z,6.00
2018-11-26T18:29:48.210Z,6.10
2018-11-26T18:32:15.820Z,6.10
2018-11-26T18:34:43.424Z,6.10
2018-11-26T18:37:11.772Z,6.00
2018-11-26T18:39:40.467Z,6.10
2018-11-26T18:42:08.179Z,6.00
2018-11-26T18:44:36.615Z,6.00
2018-11-26T18:47:04.855Z,6.00
2018-11-26T18:49:32.948Z,5.90
2018-11-26T18:52:01.592Z,6.00
2018-11-26T18:54:30.301Z,6.00
2018-11-26T18:56:58.235Z,5.90
2018-11-26T18:59:26.098Z,5.90
2018-11-26T19:01:54.794Z,5.90
2018-11-26T19:04:22.636Z,5.90
2018-11-26T19:06:50.463Z,6.00
2018-11-26T19:09:18.277Z,6.00
2018-11-26T19:11:46.164Z,6.00
2018-11-26T19:14:17.323Z,6.00
2018-11-26T19:16:47.215Z,6.00
2018-11-26T19:19:15.449Z,6.00
2018-11-26T19:21:43.317Z,6.00
2018-11-26T19:24:11.700Z,6.00
2018-11-26T19:26:39.530Z,6.00
2018-11-26T19:29:07.434Z,6.00
2018-11-26T19:31:35.261Z,6.00
2018-11-26T19:34:03.153Z,6.00
2018-11-26T19:36:31.548Z,5.90
2018-11-26T19:38:59.823Z,5.90
2018-11-26T19:41:27.805Z,5.90
2018-11-26T19:43:55.632Z,5.90
2018-11-26T19:46:23.410Z,5.90
2018-11-26T19:48:51.303Z,6.00
2018-11-26T19:51:19.168Z,6.00
2018-11-26T19:53:47.021Z,6.00
2018-11-26T19:56:14.989Z,5.90
2018-11-26T19:58:42.958Z,5.80
2018-11-26T20:01:11.785Z,5.80
2018-11-26T20:03:43.960Z,5.80
2018-11-26T20:06:14.289Z,5.90
2018-11-26T20:08:42.773Z,5.90
2018-11-26T20:11:11.161Z,5.90
2018-11-26T20:13:38.958Z,5.90
2018-11-26T20:16:12.485Z,5.80
2018-11-26T20:18:40.472Z,5.90
2018-11-26T20:21:08.332Z,5.90
2018-11-26T20:23:36.122Z,5.90
2018-11-26T20:26:03.873Z,5.90
2018-11-26T20:28:31.676Z,5.90
2018-11-26T20:30:59.565Z,5.80
2018-11-26T20:33:27.494Z,5.90
2018-11-26T20:35:55.827Z,6.00
2018-11-26T20:38:23.672Z,5.90
2018-11-26T20:40:51.588Z,5.70
2018-11-26T20:43:19.440Z,5.70
2018-11-26T20:45:48.669Z,5.80
2018-11-26T20:48:16.490Z,5.90
2018-11-26T20:50:48.913Z,5.80
2018-11-26T20:53:16.974Z,5.80
2018-11-26T20:55:44.914Z,5.90
2018-11-26T20:58:13.902Z,5.80
2018-11-26T21:00:42.016Z,5.90
2018-11-26T21:03:10.721Z,5.90
2018-11-26T21:05:39.645Z,5.90
2018-11-26T21:08:08.221Z,5.80
2018-11-26T21:10:36.204Z,5.90
2018-11-26T21:13:04.009Z,5.90
2018-11-26T21:15:31.851Z,5.80
2018-11-26T21:18:01.128Z,5.70
2018-11-26T21:20:35.643Z,5.80
2018-11-26T21:23:06.053Z,5.80
2018-11-26T21:25:34.421Z,5.90
2018-11-26T21:28:02.123Z,5.90
2018-11-26T21:30:30.629Z,5.80
2018-11-26T21:32:59.642Z,5.90
2018-11-26T21:35:27.473Z,5.90
2018-11-26T21:37:55.229Z,5.90
2018-11-26T21:40:24.201Z,5.90
2018-11-26T21:42:52.092Z,5.80
2018-11-26T21:45:28.434Z,5.80
2018-11-26T21:47:56.225Z,5.80
2018-11-26T21:50:23.846Z,5.70
2018-11-26T21:52:51.480Z,5.80
2018-11-26T21:55:19.711Z,5.80
2018-11-26T21:57:47.397Z,5.80
2018-11-26T22:00:23.989Z,5.80
2018-11-26T22:02:51.803Z,5.80
2018-11-26T22:05:19.759Z,5.70
2018-11-26T22:07:47.465Z,5.70
2018-11-26T22:10:20.011Z,5.60
2018-11-26T22:12:49.046Z,5.60
2018-11-26T22:15:17.381Z,5.60
2018-11-26T22:17:45.049Z,5.70
2018-11-26T22:20:14.502Z,5.70
2018-11-26T22:22:42.308Z,5.70
2018-11-26T22:25:11.094Z,5.70
2018-11-26T22:27:38.941Z,5.70
2018-11-26T22:30:16.045Z,5.70
2018-11-26T22:32:43.734Z,5.70
2018-11-26T22:35:11.756Z,5.70
2018-11-26T22:37:39.617Z,5.70
2018-11-26T22:40:10.280Z,5.70
2018-11-26T22:42:38.938Z,5.60
2018-11-26T22:45:09.663Z,5.60
2018-11-26T22:47:37.411Z,5.60
2018-11-26T22:50:08.716Z,5.60
2018-11-26T22:52:37.102Z,5.60
2018-11-26T22:55:05.441Z,5.60
2018-11-26T22:57:33.047Z,5.60
2018-11-26T23:00:02.139Z,5.60
2018-11-26T23:02:29.790Z,5.60
2018-11-26T23:04:57.722Z,5.60
2018-11-26T23:07:25.402Z,5.60
2018-11-26T23:09:53.103Z,5.70
2018-11-26T23:12:21.427Z,5.70
2018-11-26T23:14:49.192Z,5.60
2018-11-26T23:17:17.467Z,5.60
2018-11-26T23:19:45.151Z,5.70
2018-11-26T23:24:46.644Z,5.70
2018-11-26T23:27:17.449Z,5.70
2018-11-26T23:29:45.503Z,5.70
2018-11-26T23:32:13.454Z,5.70
2018-11-26T23:34:41.208Z,5.70
2018-11-26T23:37:11.193Z,5.60
2018-11-26T23:39:40.549Z,5.60
2018-11-26T23:42:08.249Z,5.70
2018-11-26T23:44:36.176Z,5.70
2018-11-26T23:47:04.245Z,5.70
2018-11-26T23:49:31.927Z,5.70
2018-11-26T23:51:59.497Z,5.70
2018-11-26T23:54:27.372Z,5.70
2018-11-26T23:56:54.996Z,5.60
2018-11-26T23:59:23.615Z,5.60
